Time;durP1;ratioP1;P1;durP2;ratioP2;P2;SDS_P1;SDS_P2;PMS_P1;PMS_P2;Temp;Humidity;BMP_temperature;BMP_pressure;BME280_temperature;BME280_humidity;BME280_pressure;Samples;Min_cycle;Max_cycle;Signal;HPM_P1;HPM_P2
2022/04/28 00:04:16;;;;;;;7.10;4.27;;;;;;;10.80;77.23;100733.56;31350797;28;20053;-75
2022/04/28 00:19:18;;;;;;;8.30;4.43;;;;;;;10.70;78.12;100731.69;31312512;28;20045;-75
2022/04/28 00:34:20;;;;;;;7.87;4.20;;;;;;;10.59;78.65;100738.03;31346791;28;20061;-74
2022/04/28 01:04:42;;;;;;;7.20;3.90;;;;;;;10.43;78.79;100748.63;31346649;28;20094;-74
2022/04/28 01:19:44;;;;;;;7.63;3.83;;;;;;;10.36;78.75;100743.28;31336155;28;20053;-75
2022/04/28 01:34:46;;;;;;;5.97;3.73;;;;;;;10.23;78.91;100750.34;31341057;28;20056;-74
2022/04/28 01:49:48;;;;;;;7.47;3.67;;;;;;;10.08;77.85;100748.91;31355063;28;20045;-73
2022/04/28 02:04:50;;;;;;;6.60;3.40;;;;;;;10.00;77.87;100741.97;31352341;28;20056;-74
2022/04/28 02:19:53;;;;;;;7.80;3.83;;;;;;;9.98;78.32;100736.94;31354737;28;20067;-74
2022/04/28 02:34:55;;;;;;;7.70;4.37;;;;;;;9.96;78.44;100757.50;31359062;28;20056;-75
2022/04/28 02:49:57;;;;;;;7.43;4.27;;;;;;;9.92;78.81;100747.44;31354581;28;20053;-73
2022/04/28 03:05:01;;;;;;;8.07;4.03;;;;;;;10.23;78.17;100751.13;31339619;28;20059;-74
2022/04/28 03:20:05;;;;;;;7.37;3.83;;;;;;;10.41;77.62;100761.81;31353055;28;20044;-74
2022/04/28 03:35:08;;;;;;;10.27;4.17;;;;;;;10.67;77.35;100787.59;31339425;28;20519;-74
2022/04/28 03:50:10;;;;;;;6.37;3.63;;;;;;;11.11;76.63;100797.63;31345259;28;20107;-74
2022/04/28 04:05:12;;;;;;;6.57;3.67;;;;;;;11.62;75.10;100795.84;31337689;28;20056;-74
2022/04/28 04:20:15;;;;;;;8.43;4.10;;;;;;;12.11;72.81;100790.94;31362655;28;20408;-74
2022/04/28 04:35:17;;;;;;;5.67;3.00;;;;;;;12.58;70.55;100803.41;31355231;28;20049;-73
2022/04/28 04:50:19;;;;;;;7.00;2.93;;;;;;;13.28;68.51;100833.31;31368396;28;20056;-73
2022/04/28 05:05:21;;;;;;;5.17;2.50;;;;;;;13.84;64.22;100847.00;31375092;28;20057;-75
2022/04/28 05:20:23;;;;;;;5.33;3.50;;;;;;;14.60;60.82;100847.66;31393684;28;20049;-73
2022/04/28 05:35:28;;;;;;;3.83;2.53;;;;;;;15.51;57.59;100858.56;31403947;28;20044;-73
2022/04/28 05:50:31;;;;;;;3.13;2.27;;;;;;;16.16;54.51;100858.25;31375170;28;20063;-73
2022/04/28 06:05:33;;;;;;;3.80;2.50;;;;;;;17.19;52.65;100866.66;31387578;28;20044;-72
2022/04/28 06:20:35;;;;;;;3.83;2.33;;;;;;;17.82;50.41;100862.06;31351324;28;20055;-73
2022/04/28 06:35:38;;;;;;;5.38;2.10;;;;;;;18.46;46.50;100863.06;31377992;28;20056;-72
2022/04/28 06:50:40;;;;;;;2.75;1.60;;;;;;;19.41;43.49;100872.06;31366022;28;20063;-72
2022/04/28 07:05:42;;;;;;;3.38;1.48;;;;;;;20.29;41.41;100849.19;31384881;28;20053;-73
2022/04/28 07:20:47;;;;;;;2.28;1.63;;;;;;;20.75;40.31;100858.75;31362588;28;20045;-72
2022/04/28 07:35:49;;;;;;;2.03;1.33;;;;;;;21.03;38.69;100850.25;31336728;28;20045;-70
2022/04/28 07:50:51;;;;;;;3.95;2.22;;;;;;;21.76;36.60;100846.81;31354914;28;20148;-71
2022/04/28 08:05:53;;;;;;;4.07;2.10;;;;;;;22.46;35.29;100850.41;31331590;28;20144;-68
2022/04/28 08:20:56;;;;;;;2.90;1.60;;;;;;;22.69;32.37;100836.88;31357071;28;20048;-79
2022/04/28 08:35:58;;;;;;;1.83;1.47;;;;;;;23.08;30.89;100842.91;31353832;28;20053;-69
2022/04/28 08:51:01;;;;;;;7.43;2.27;;;;;;;23.44;30.75;100839.50;31344610;28;20057;-76
2022/04/28 09:06:36;;;;;;;1.73;1.23;;;;;;;24.04;28.18;100826.66;31354563;28;20053;-73
2022/04/28 09:21:39;;;;;;;2.28;1.60;;;;;;;23.97;28.81;100835.41;31325026;28;20055;-72
2022/04/28 09:36:43;;;;;;;3.03;1.98;;;;;;;24.44;28.70;100825.66;31361857;28;20053;-77
2022/04/28 09:51:46;;;;;;;5.07;1.05;;;;;;;24.34;28.83;100809.69;31359176;28;20113;-70
2022/04/28 10:06:48;;;;;;;2.80;2.00;;;;;;;25.28;28.59;100814.81;31367301;28;20053;-74
2022/04/28 10:21:55;;;;;;;4.53;1.80;;;;;;;25.26;27.59;100817.38;31351381;28;20126;-73
2022/04/28 10:37:06;;;;;;;4.05;2.28;;;;;;;25.63;26.78;100819.19;31354301;28;20061;-72
2022/04/28 10:52:20;;;;;;;;;;;;;;;25.99;26.11;100814.59;31350887;28;20527;-69
2022/04/28 11:07:25;;;;;;;1.50;1.10;;;;;;;26.63;25.70;100807.84;31370394;28;19924;-69
2022/04/28 11:22:28;;;;;;;1.35;0.80;;;;;;;26.49;25.71;100786.63;31354385;28;20056;-69
2022/04/28 11:37:30;;;;;;;4.82;1.60;;;;;;;24.82;27.06;100782.63;31352755;28;20485;-76
2022/04/28 11:52:34;;;;;;;2.00;1.23;;;;;;;22.69;29.15;100762.91;31331211;28;20064;-69
2022/04/28 12:07:37;;;;;;;25.35;6.60;;;;;;;21.60;30.04;100764.44;31337532;28;20044;-77
2022/04/28 12:22:40;;;;;;;1.87;1.20;;;;;;;21.18;30.84;100765.47;31315319;28;20436;-70
2022/04/28 12:37:42;;;;;;;;;;;;;;;20.81;30.60;100750.47;31330719;28;20060;-78
2022/04/28 12:52:45;;;;;;;3.25;1.30;;;;;;;20.45;31.24;100751.53;31371407;28;19921;-70
2022/04/28 13:07:46;;;;;;;2.90;1.10;;;;;;;20.35;31.85;100745.28;31351297;28;20040;-69
2022/04/28 13:22:48;;;;;;;3.42;1.20;;;;;;;20.15;31.96;100739.59;31378449;28;20063;-78
2022/04/28 13:37:51;;;;;;;1.00;0.80;;;;;;;20.06;31.82;100738.44;31375318;28;20063;-80
2022/04/28 13:52:55;;;;;;;4.22;1.20;;;;;;;19.91;32.46;100734.84;31449881;28;20049;-78
2022/04/28 14:07:56;;;;;;;2.00;1.13;;;;;;;19.89;32.34;100734.53;31390743;28;20556;-70
2022/04/28 14:22:59;;;;;;;2.67;1.10;;;;;;;19.71;32.54;100734.63;31376319;28;20043;-84
2022/04/28 14:38:01;;;;;;;19.20;10.27;;;;;;;19.47;32.73;100729.03;31344114;28;20045;-72
2022/04/28 14:53:03;;;;;;;4.00;1.00;;;;;;;19.33;32.46;100713.19;31365690;28;20083;-73
2022/04/28 15:08:05;;;;;;;1.23;0.88;;;;;;;19.11;32.59;100724.41;31368824;28;20049;-69
2022/04/28 15:23:07;;;;;;;2.05;1.30;;;;;;;18.88;33.00;100731.31;31354527;28;20045;-71
2022/04/28 15:38:11;;;;;;;2.42;1.23;;;;;;;18.64;33.44;100725.69;31330973;28;20056;-71
2022/04/28 15:53:13;;;;;;;7.07;1.70;;;;;;;18.40;34.19;100725.50;31346279;28;20071;-72
2022/04/28 16:08:15;;;;;;;3.28;1.23;;;;;;;18.05;34.55;100719.47;31353279;28;20064;-75
2022/04/28 16:23:17;;;;;;;2.75;1.35;;;;;;;17.75;35.39;100720.28;31388833;28;20071;-71
2022/04/28 16:38:20;;;;;;;4.32;1.90;;;;;;;17.57;36.02;100725.69;31412132;28;20439;-71
2022/04/28 16:53:24;;;;;;;2.83;1.55;;;;;;;17.30;36.40;100751.00;31379049;28;20420;-70
2022/04/28 17:08:27;;;;;;;3.00;1.55;;;;;;;17.05;36.85;100774.63;31367580;28;20040;-71
2022/04/28 17:23:29;;;;;;;8.68;2.85;;;;;;;16.84;37.45;100786.34;31353493;28;20057;-72
2022/04/28 17:38:30;;;;;;;7.18;3.90;;;;;;;16.62;37.89;100810.19;31363911;28;20041;-70
2022/04/28 17:53:32;;;;;;;5.83;2.23;;;;;;;16.50;38.35;100828.22;31352496;28;20045;-71
2022/04/28 18:08:35;;;;;;;4.78;2.88;;;;;;;16.36;39.08;100836.88;31352149;28;20045;-71
2022/04/28 18:23:37;;;;;;;6.90;3.45;;;;;;;16.25;39.37;100845.44;31337796;28;20559;-73
2022/04/28 18:54:00;;;;;;;2.23;1.50;;;;;;;15.87;40.77;100859.09;31341602;28;20044;-71
2022/04/28 19:09:02;;;;;;;2.30;1.10;;;;;;;15.61;42.19;100854.78;31346754;28;20501;-73
2022/04/28 19:24:09;;;;;;;1.60;1.37;;;;;;;15.29;43.00;100885.75;31333873;28;20049;-73
2022/04/28 19:39:11;;;;;;;5.00;2.87;;;;;;;15.10;43.22;100884.69;31342327;28;20448;-74
2022/04/28 19:54:13;;;;;;;2.33;1.20;;;;;;;14.97;43.92;100886.56;31329333;28;20048;-71
2022/04/28 20:09:17;;;;;;;4.30;1.60;;;;;;;14.83;44.78;100900.59;31334513;28;20053;-72
2022/04/28 20:24:21;;;;;;;7.60;2.80;;;;;;;14.79;44.36;100913.56;31341749;28;20424;-72
2022/04/28 20:39:23;;;;;;;6.17;1.43;;;;;;;14.85;43.76;100906.41;31322732;28;20058;-71
2022/04/28 20:54:25;;;;;;;2.43;1.10;;;;;;;14.83;42.61;100908.78;31337766;28;20056;-70
2022/04/28 21:09:27;;;;;;;20.80;5.47;;;;;;;14.74;42.41;100901.19;31351578;28;20056;-72
2022/04/28 21:24:29;;;;;;;2.87;1.30;;;;;;;14.53;42.56;100905.19;31358943;28;20060;-73
2022/04/28 21:39:31;;;;;;;5.40;1.97;;;;;;;14.42;42.27;100912.84;31378337;28;20061;-71
2022/04/28 21:54:33;;;;;;;2.27;1.30;;;;;;;14.23;42.81;100905.44;31371510;28;20045;-73
2022/04/28 22:24:56;;;;;;;7.53;1.53;;;;;;;13.96;43.61;100892.75;31378072;28;20053;-73
2022/04/28 22:39:58;;;;;;;2.50;1.13;;;;;;;13.91;44.06;100881.59;31360036;28;20048;-73
2022/04/28 22:55:00;;;;;;;2.10;1.27;;;;;;;13.88;44.02;100875.00;31354544;28;20044;-72
2022/04/28 23:10:11;;;;;;;2.27;1.40;;;;;;;13.79;44.94;100865.84;31346129;28;20051;-71
2022/04/28 23:25:12;;;;;;;1.43;1.33;;;;;;;13.69;45.47;100872.28;31369983;28;20491;-73
2022/04/28 23:40:14;;;;;;;2.33;1.73;;;;;;;13.62;46.18;100873.19;31367839;28;20044;-73
2022/04/28 23:55:16;;;;;;;3.00;1.70;;;;;;;13.65;47.44;100883.28;31362662;28;20062;-73
